Time,TemperatureF,DewpointF,PressureIn,WindDirection,WindDirectionDegrees,WindSpeedMPH,WindSpeedGustMPH,Humidity,HourlyPrecipIn,Conditions,Clouds,dailyrainin,SolarRadiationWatts/m^2,SoftwareType,DateUTC
2013-09-24 00:09:00,61.1,58.0,29.94,West,277,0.0,3.0,89,0.00,,,0.00,0,weatherlink.com 1.10,2013-09-24 07:09:00,
2013-09-24 00:24:00,61.1,58.0,29.94,West,277,0.0,1.0,90,0.00,,,0.00,0,weatherlink.com 1.10,2013-09-24 07:24:00,
2013-09-24 00:39:00,61.0,58.0,29.94,West,277,2.0,2.0,89,0.00,,,0.00,0,weatherlink.com 1.10,2013-09-24 07:39:00,
2013-09-24 00:54:00,60.8,58.0,29.93,West,277,0.0,2.0,89,0.00,,,0.00,0,weatherlink.com 1.10,2013-09-24 07:54:00,
2013-09-24 01:09:00,61.1,58.0,29.94,SW,233,4.0,7.0,89,0.00,,,0.00,0,weatherlink.com 1.10,2013-09-24 08:09:00,
2013-09-24 01:24:00,61.1,57.0,29.94,West,267,2.0,6.0,87,0.00,,,0.00,0,weatherlink.com 1.10,2013-09-24 08:24:00,
2013-09-24 01:39:00,60.9,56.0,29.94,West,277,1.0,7.0,85,0.00,,,0.00,0,weatherlink.com 1.10,2013-09-24 08:39:00,
2013-09-24 01:54:00,60.9,56.0,29.94,WNW,294,2.0,6.0,84,0.00,,,0.00,0,weatherlink.com 1.10,2013-09-24 08:54:00,
2013-09-24 02:09:00,61.0,56.0,29.94,West,262,0.0,4.0,84,0.00,,,0.00,0,weatherlink.com 1.10,2013-09-24 09:09:00,
2013-09-24 02:24:00,60.9,56.0,29.94,West,260,3.0,5.0,84,0.00,,,0.00,0,weatherlink.com 1.10,2013-09-24 09:24:00,
2013-09-24 02:39:00,60.8,56.0,29.93,West,260,4.0,5.0,84,0.00,,,0.00,0,weatherlink.com 1.10,2013-09-24 09:39:00,
2013-09-24 02:54:00,60.7,56.0,29.93,WNW,290,0.0,5.0,84,0.00,,,0.00,0,weatherlink.com 1.10,2013-09-24 09:54:00,
2013-09-24 03:09:00,60.4,56.0,29.93,WNW,296,0.0,2.0,84,0.00,,,0.00,0,weatherlink.com 1.10,2013-09-24 10:09:00,
2013-09-24 03:24:00,60.4,56.0,29.93,WNW,296,0.0,4.0,84,0.00,,,0.00,0,weatherlink.com 1.10,2013-09-24 10:24:00,
2013-09-24 03:39:00,60.1,55.0,29.93,WNW,296,0.0,1.0,84,0.00,,,0.00,0,weatherlink.com 1.10,2013-09-24 10:39:00,
2013-09-24 03:54:00,60.3,55.0,29.93,WNW,296,0.0,3.0,83,0.00,,,0.00,0,weatherlink.com 1.10,2013-09-24 10:54:00,
2013-09-24 04:09:00,60.1,55.0,29.93,WNW,296,0.0,5.0,83,0.00,,,0.00,0,weatherlink.com 1.10,2013-09-24 11:09:00,
2013-09-24 04:24:00,60.2,55.0,29.93,NNE,14,5.0,5.0,83,0.00,,,0.00,0,weatherlink.com 1.10,2013-09-24 11:24:00,
2013-09-24 04:39:00,59.7,55.0,29.93,NW,308,2.0,6.0,84,0.00,,,0.00,0,weatherlink.com 1.10,2013-09-24 11:39:00,
2013-09-24 04:54:00,59.4,55.0,29.93,West,261,4.0,7.0,85,0.00,,,0.00,0,weatherlink.com 1.10,2013-09-24 11:54:00,
2013-09-24 05:09:00,59.5,55.0,29.93,WSW,257,0.0,9.0,84,0.00,,,0.00,0,weatherlink.com 1.10,2013-09-24 12:09:00,
2013-09-24 05:24:00,59.2,55.0,29.93,West,264,4.0,5.0,85,0.00,,,0.00,0,weatherlink.com 1.10,2013-09-24 12:24:00,
2013-09-24 05:39:00,59.0,55.0,29.94,NE,42,1.0,3.0,86,0.00,,,0.00,0,weatherlink.com 1.10,2013-09-24 12:39:00,
2013-09-24 05:54:00,58.7,55.0,29.94,NE,47,3.0,4.0,86,0.00,,,0.00,0,weatherlink.com 1.10,2013-09-24 12:54:00,
2013-09-24 06:09:00,58.8,55.0,29.94,South,170,4.0,6.0,86,0.00,,,0.00,0,weatherlink.com 1.10,2013-09-24 13:09:00,
2013-09-24 06:24:00,58.4,55.0,29.94,SW,230,4.0,5.0,87,0.00,,,0.00,0,weatherlink.com 1.10,2013-09-24 13:24:00,
2013-09-24 06:40:00,58.6,55.0,29.95,North,5,0.0,6.0,86,0.00,,,0.00,0,weatherlink.com 1.10,2013-09-24 13:40:00,
2013-09-24 06:55:00,58.7,55.0,29.95,West,261,1.0,4.0,86,0.00,,,0.00,0,weatherlink.com 1.10,2013-09-24 13:55:00,
2013-09-24 07:10:00,58.6,55.0,29.95,South,177,0.0,6.0,87,0.00,,,0.00,12,weatherlink.com 1.10,2013-09-24 14:10:00,
2013-09-24 07:25:00,58.1,54.0,29.96,South,175,1.0,2.0,86,0.00,,,0.00,23,weatherlink.com 1.10,2013-09-24 14:25:00,
2013-09-24 07:40:00,59.6,56.0,29.96,SW,225,3.0,4.0,86,0.00,,,0.00,105,weatherlink.com 1.10,2013-09-24 14:40:00,
2013-09-24 07:55:00,60.7,56.0,29.96,SW,236,2.0,4.0,84,0.00,,,0.00,190,weatherlink.com 1.10,2013-09-24 14:55:00,
2013-09-24 08:10:00,61.2,56.0,29.97,West,266,2.0,6.0,83,0.00,,,0.00,288,weatherlink.com 1.10,2013-09-24 15:10:00,
2013-09-24 08:25:00,61.4,56.0,29.96,SW,236,2.0,6.0,82,0.00,,,0.00,109,weatherlink.com 1.10,2013-09-24 15:25:00,
2013-09-24 08:40:00,62.8,57.0,29.97,SSW,197,0.0,6.0,80,0.00,,,0.00,181,weatherlink.com 1.10,2013-09-24 15:40:00,
2013-09-24 08:55:00,63.0,57.0,29.96,WSW,246,3.0,4.0,81,0.00,,,0.00,223,weatherlink.com 1.10,2013-09-24 15:55:00,
2013-09-24 09:10:00,63.2,57.0,29.97,WNW,286,3.0,8.0,79,0.00,,,0.00,229,weatherlink.com 1.10,2013-09-24 16:10:00,
2013-09-24 09:25:00,64.0,57.0,29.97,West,271,3.0,7.0,78,0.00,,,0.00,297,weatherlink.com 1.10,2013-09-24 16:25:00,
2013-09-24 09:40:00,64.1,56.0,29.97,WNW,294,4.0,10.0,76,0.00,,,0.00,218,weatherlink.com 1.10,2013-09-24 16:40:00,
2013-09-24 09:55:00,63.1,57.0,29.98,WNW,294,6.0,12.0,79,0.00,,,0.00,174,weatherlink.com 1.10,2013-09-24 16:55:00,
2013-09-24 10:10:00,64.8,57.0,29.98,WNW,288,6.0,15.0,77,0.00,,,0.00,638,weatherlink.com 1.10,2013-09-24 17:10:00,
2013-09-24 10:25:00,66.0,57.0,29.98,NNW,330,4.0,11.0,73,0.00,,,0.00,652,weatherlink.com 1.10,2013-09-24 17:25:00,
2013-09-24 10:40:00,67.2,57.0,29.98,WNW,284,2.0,11.0,70,0.00,,,0.00,682,weatherlink.com 1.10,2013-09-24 17:40:00,
2013-09-24 10:55:00,68.4,57.0,29.98,NW,310,4.0,9.0,66,0.00,,,0.00,708,weatherlink.com 1.10,2013-09-24 17:55:00,
2013-09-24 11:10:00,69.1,57.0,29.98,WSW,254,3.0,9.0,65,0.00,,,0.00,735,weatherlink.com 1.10,2013-09-24 18:10:00,
2013-09-24 11:25:00,70.1,57.0,29.98,SW,215,9.0,11.0,63,0.00,,,0.00,738,weatherlink.com 1.10,2013-09-24 18:25:00,
2013-09-24 11:40:00,69.7,55.0,29.97,West,281,2.0,10.0,59,0.00,,,0.00,752,weatherlink.com 1.10,2013-09-24 18:40:00,
2013-09-24 11:56:00,71.2,55.0,29.97,WNW,302,4.0,11.0,57,0.00,,,0.00,766,weatherlink.com 1.10,2013-09-24 18:56:00,
2013-09-24 12:11:00,71.0,53.0,29.96,NW,309,7.0,13.0,54,0.00,,,0.00,775,weatherlink.com 1.10,2013-09-24 19:11:00,
2013-09-24 12:26:00,71.8,54.0,29.96,WNW,301,3.0,12.0,54,0.00,,,0.00,789,weatherlink.com 1.10,2013-09-24 19:26:00,
2013-09-24 12:41:00,71.9,54.0,29.97,NW,324,7.0,14.0,53,0.00,,,0.00,791,weatherlink.com 1.10,2013-09-24 19:41:00,
2013-09-24 12:56:00,71.6,52.0,29.97,WSW,245,3.0,13.0,51,0.00,,,0.00,784,weatherlink.com 1.10,2013-09-24 19:56:00,
2013-09-24 13:11:00,72.6,53.0,29.96,WSW,241,5.0,15.0,51,0.00,,,0.00,779,weatherlink.com 1.10,2013-09-24 20:11:00,
2013-09-24 13:26:00,72.2,52.0,29.96,West,271,10.0,12.0,50,0.00,,,0.00,775,weatherlink.com 1.10,2013-09-24 20:26:00,
2013-09-24 13:41:00,73.2,53.0,29.94,WNW,297,5.0,12.0,50,0.00,,,0.00,747,weatherlink.com 1.10,2013-09-24 20:41:00,
2013-09-24 13:56:00,73.5,54.0,29.93,West,271,6.0,10.0,50,0.00,,,0.00,731,weatherlink.com 1.10,2013-09-24 20:56:00,
2013-09-24 14:11:00,73.8,53.0,29.92,WNW,286,8.0,10.0,48,0.00,,,0.00,708,weatherlink.com 1.10,2013-09-24 21:11:00,
2013-09-24 14:26:00,74.4,53.0,29.91,SSW,211,6.0,14.0,48,0.00,,,0.00,687,weatherlink.com 1.10,2013-09-24 21:26:00,
2013-09-24 14:41:00,74.8,54.0,29.91,South,189,11.0,11.0,48,0.00,,,0.00,656,weatherlink.com 1.10,2013-09-24 21:41:00,
2013-09-24 14:56:00,74.4,55.0,29.92,WSW,240,9.0,13.0,51,0.00,,,0.00,621,weatherlink.com 1.10,2013-09-24 21:56:00,
2013-09-24 15:11:00,74.0,55.0,29.91,SW,227,6.0,14.0,52,0.00,,,0.00,582,weatherlink.com 1.10,2013-09-24 22:11:00,
2013-09-24 15:26:00,73.5,55.0,29.91,SW,232,12.0,18.0,52,0.00,,,0.00,555,weatherlink.com 1.10,2013-09-24 22:26:00,
2013-09-24 15:41:00,72.8,55.0,29.91,NW,314,14.0,14.0,53,0.00,,,0.00,513,weatherlink.com 1.10,2013-09-24 22:41:00,
2013-09-24 15:56:00,71.3,54.0,29.92,WNW,296,10.0,20.0,55,0.00,,,0.00,469,weatherlink.com 1.10,2013-09-24 22:56:00,
2013-09-24 16:11:00,71.3,54.0,29.90,WSW,257,13.0,13.0,55,0.00,,,0.00,425,weatherlink.com 1.10,2013-09-24 23:11:00,
2013-09-24 16:26:00,71.6,54.0,29.91,WNW,282,6.0,14.0,54,0.00,,,0.00,376,weatherlink.com 1.10,2013-09-24 23:26:00,
2013-09-24 16:41:00,70.9,55.0,29.89,WSW,258,6.0,16.0,57,0.00,,,0.00,334,weatherlink.com 1.10,2013-09-24 23:41:00,
2013-09-24 16:56:00,70.1,54.0,29.90,WNW,284,15.0,15.0,58,0.00,,,0.00,283,weatherlink.com 1.10,2013-09-24 23:56:00,
2013-09-24 17:11:00,69.4,55.0,29.90,WNW,289,6.0,13.0,61,0.00,,,0.00,223,weatherlink.com 1.10,2013-09-25 00:11:00,
2013-09-24 17:26:00,69.2,55.0,29.91,NNW,331,9.0,12.0,61,0.00,,,0.00,156,weatherlink.com 1.10,2013-09-25 00:26:00,
2013-09-24 17:41:00,68.9,55.0,29.90,West,281,4.0,12.0,61,0.00,,,0.00,104,weatherlink.com 1.10,2013-09-25 00:41:00,
2013-09-24 17:56:00,68.5,54.0,29.89,WNW,296,5.0,12.0,61,0.00,,,0.00,54,weatherlink.com 1.10,2013-09-25 00:56:00,
2013-09-24 18:11:00,67.4,53.0,29.89,WNW,298,4.0,14.0,61,0.00,,,0.00,26,weatherlink.com 1.10,2013-09-25 01:11:00,
2013-09-24 18:26:00,66.7,54.0,29.89,WNW,287,5.0,13.0,63,0.00,,,0.00,21,weatherlink.com 1.10,2013-09-25 01:26:00,
2013-09-24 18:41:00,65.8,54.0,29.89,NW,313,3.0,8.0,65,0.00,,,0.00,14,weatherlink.com 1.10,2013-09-25 01:41:00,
2013-09-24 18:56:00,64.3,54.0,29.89,NW,304,2.0,8.0,69,0.00,,,0.00,7,weatherlink.com 1.10,2013-09-25 01:56:00,
2013-09-24 19:11:00,63.5,54.0,29.89,WNW,286,6.0,10.0,70,0.00,,,0.00,0,weatherlink.com 1.10,2013-09-25 02:11:00,
2013-09-24 19:26:00,63.0,51.0,29.89,WNW,298,7.0,11.0,66,0.00,,,0.00,0,weatherlink.com 1.10,2013-09-25 02:26:00,
2013-09-24 19:41:00,62.5,53.0,29.89,West,266,3.0,9.0,71,0.00,,,0.00,0,weatherlink.com 1.10,2013-09-25 02:41:00,
2013-09-24 19:56:00,61.8,51.0,29.89,West,267,3.0,12.0,68,0.00,,,0.00,0,weatherlink.com 1.10,2013-09-25 02:56:00,
2013-09-24 20:11:00,61.7,50.0,29.89,WNW,288,5.0,12.0,66,0.00,,,0.00,0,weatherlink.com 1.10,2013-09-25 03:11:00,
2013-09-24 20:26:00,61.7,49.0,29.90,WNW,292,6.0,17.0,64,0.00,,,0.00,0,weatherlink.com 1.10,2013-09-25 03:26:00,
2013-09-24 20:41:00,61.3,50.0,29.90,West,279,7.0,16.0,66,0.00,,,0.00,0,weatherlink.com 1.10,2013-09-25 03:41:00,
2013-09-24 20:56:00,61.0,49.0,29.90,NW,308,3.0,13.0,66,0.00,,,0.00,0,weatherlink.com 1.10,2013-09-25 03:56:00,
2013-09-24 21:11:00,60.6,50.0,29.90,WNW,285,5.0,10.0,67,0.00,,,0.00,0,weatherlink.com 1.10,2013-09-25 04:11:00,
2013-09-24 21:26:00,60.3,50.0,29.91,WNW,286,3.0,7.0,68,0.00,,,0.00,0,weatherlink.com 1.10,2013-09-25 04:26:00,
2013-09-24 21:41:00,60.1,49.0,29.91,WNW,297,4.0,11.0,67,0.00,,,0.00,0,weatherlink.com 1.10,2013-09-25 04:41:00,
2013-09-24 21:56:00,60.1,48.0,29.90,NW,309,7.0,10.0,65,0.00,,,0.00,0,weatherlink.com 1.10,2013-09-25 04:56:00,
2013-09-24 22:11:00,60.1,47.0,29.90,West,277,3.0,11.0,63,0.00,,,0.00,0,weatherlink.com 1.10,2013-09-25 05:11:00,
2013-09-24 22:26:00,59.8,47.0,29.91,West,272,4.0,11.0,63,0.00,,,0.00,0,weatherlink.com 1.10,2013-09-25 05:26:00,
2013-09-24 22:41:00,59.1,48.0,29.90,WNW,298,4.0,8.0,66,0.00,,,0.00,0,weatherlink.com 1.10,2013-09-25 05:41:00,
2013-09-24 22:56:00,58.5,48.0,29.91,WNW,291,4.0,8.0,69,0.00,,,0.00,0,weatherlink.com 1.10,2013-09-25 05:56:00,
2013-09-24 23:11:00,58.0,49.0,29.91,NW,304,4.0,7.0,71,0.00,,,0.00,0,weatherlink.com 1.10,2013-09-25 06:11:00,
2013-09-24 23:26:00,58.1,48.0,29.91,West,278,5.0,8.0,70,0.00,,,0.00,0,weatherlink.com 1.10,2013-09-25 06:26:00,
2013-09-24 23:41:00,57.8,49.0,29.91,NW,304,5.0,9.0,73,0.00,,,0.00,0,weatherlink.com 1.10,2013-09-25 06:41:00,
2013-09-24 23:56:00,57.5,49.0,29.91,North,355,0.0,9.0,73,0.00,,,0.00,0,weatherlink.com 1.10,2013-09-25 06:56:00,